sensor_id;sensor_type;location;lat;lon;timestamp;pressure;altitude;pressure_sealevel;temperature;humidity
29569;BME280;16501;51.462;14.346;2023-05-23T00:00:27;99772.50;;;17.59;58.61
29569;BME280;16501;51.462;14.346;2023-05-23T00:02:53;99774.13;;;17.54;59.54
29569;BME280;16501;51.462;14.346;2023-05-23T00:05:19;99773.63;;;17.50;58.96
29569;BME280;16501;51.462;14.346;2023-05-23T00:07:44;99769.75;;;17.53;58.83
29569;BME280;16501;51.462;14.346;2023-05-23T00:10:10;99774.41;;;17.50;58.52
29569;BME280;16501;51.462;14.346;2023-05-23T00:12:35;99773.47;;;17.42;59.22
29569;BME280;16501;51.462;14.346;2023-05-23T00:15:04;99767.91;;;17.31;59.34
29569;BME280;16501;51.462;14.346;2023-05-23T00:17:32;99777.38;;;17.39;59.86
29569;BME280;16501;51.462;14.346;2023-05-23T00:19:58;99771.78;;;17.33;59.92
29569;BME280;16501;51.462;14.346;2023-05-23T00:22:23;99767.00;;;17.23;60.28
29569;BME280;16501;51.462;14.346;2023-05-23T00:24:48;99781.94;;;17.23;60.23
29569;BME280;16501;51.462;14.346;2023-05-23T00:27:14;99761.97;;;17.10;60.83
29569;BME280;16501;51.462;14.346;2023-05-23T00:29:39;99770.75;;;17.06;61.39
29569;BME280;16501;51.462;14.346;2023-05-23T00:32:05;99783.34;;;17.11;61.50
29569;BME280;16501;51.462;14.346;2023-05-23T00:34:30;99781.03;;;17.09;61.67
29569;BME280;16501;51.462;14.346;2023-05-23T00:36:55;99751.38;;;16.91;62.69
29569;BME280;16501;51.462;14.346;2023-05-23T00:39:22;99757.25;;;16.93;63.08
29569;BME280;16501;51.462;14.346;2023-05-23T00:41:48;99777.53;;;16.98;62.93
29569;BME280;16501;51.462;14.346;2023-05-23T00:44:14;99782.00;;;16.93;63.45
29569;BME280;16501;51.462;14.346;2023-05-23T00:46:40;99778.19;;;16.85;63.70
29569;BME280;16501;51.462;14.346;2023-05-23T00:49:08;99762.81;;;16.74;62.87
29569;BME280;16501;51.462;14.346;2023-05-23T00:51:33;99759.31;;;16.63;62.73
29569;BME280;16501;51.462;14.346;2023-05-23T00:54:00;99786.03;;;16.67;63.06
29569;BME280;16501;51.462;14.346;2023-05-23T00:56:25;99742.00;;;16.42;63.81
29569;BME280;16501;51.462;14.346;2023-05-23T00:58:53;99775.28;;;16.60;64.74
29569;BME280;16501;51.462;14.346;2023-05-23T01:01:18;99756.06;;;16.53;64.89
29569;BME280;16501;51.462;14.346;2023-05-23T01:03:44;99731.72;;;16.38;64.70
29569;BME280;16501;51.462;14.346;2023-05-23T01:06:12;99755.28;;;16.52;64.46
29569;BME280;16501;51.462;14.346;2023-05-23T01:08:38;99745.28;;;16.46;64.39
29569;BME280;16501;51.462;14.346;2023-05-23T01:11:11;99752.97;;;16.51;64.31
29569;BME280;16501;51.462;14.346;2023-05-23T01:13:45;99760.41;;;16.54;64.54
29569;BME280;16501;51.462;14.346;2023-05-23T01:18:58;99754.97;;;16.56;63.95
29569;BME280;16501;51.462;14.346;2023-05-23T01:21:26;99733.56;;;16.36;64.06
29569;BME280;16501;51.462;14.346;2023-05-23T01:27:00;99770.47;;;16.49;64.48
29569;BME280;16501;51.462;14.346;2023-05-23T01:29:30;99758.72;;;16.39;65.35
29569;BME280;16501;51.462;14.346;2023-05-23T01:31:57;99754.66;;;16.35;66.85
29569;BME280;16501;51.462;14.346;2023-05-23T01:34:23;99740.03;;;16.31;67.54
29569;BME280;16501;51.462;14.346;2023-05-23T01:36:52;99706.53;;;16.05;68.17
29569;BME280;16501;51.462;14.346;2023-05-23T01:39:18;99732.63;;;16.22;67.18
29569;BME280;16501;51.462;14.346;2023-05-23T01:41:43;99724.16;;;16.22;66.88
29569;BME280;16501;51.462;14.346;2023-05-23T01:44:09;99740.72;;;16.37;66.38
29569;BME280;16501;51.462;14.346;2023-05-23T01:46:34;99738.97;;;16.34;66.32
29569;BME280;16501;51.462;14.346;2023-05-23T01:49:03;99741.81;;;16.34;66.81
29569;BME280;16501;51.462;14.346;2023-05-23T01:51:31;99715.72;;;16.11;67.26
29569;BME280;16501;51.462;14.346;2023-05-23T01:53:58;99725.19;;;16.19;67.67
29569;BME280;16501;51.462;14.346;2023-05-23T01:56:24;99724.47;;;16.13;67.81
29569;BME280;16501;51.462;14.346;2023-05-23T01:58:51;99710.41;;;16.01;68.12
29569;BME280;16501;51.462;14.346;2023-05-23T02:01:16;99713.72;;;16.06;68.52
29569;BME280;16501;51.462;14.346;2023-05-23T02:03:42;99730.66;;;16.11;68.77
29569;BME280;16501;51.462;14.346;2023-05-23T02:06:07;99720.66;;;16.05;69.02
29569;BME280;16501;51.462;14.346;2023-05-23T02:08:32;99720.16;;;16.06;68.74
29569;BME280;16501;51.462;14.346;2023-05-23T02:10:57;99717.34;;;16.00;69.15
29569;BME280;16501;51.462;14.346;2023-05-23T02:13:23;99722.94;;;16.12;68.84
29569;BME280;16501;51.462;14.346;2023-05-23T02:15:48;99720.91;;;16.07;69.07
29569;BME280;16501;51.462;14.346;2023-05-23T02:18:13;99717.03;;;16.10;69.82
29569;BME280;16501;51.462;14.346;2023-05-23T02:20:38;99707.09;;;15.97;70.21
29569;BME280;16501;51.462;14.346;2023-05-23T02:23:05;99718.41;;;15.97;70.75
29569;BME280;16501;51.462;14.346;2023-05-23T02:25:30;99715.81;;;15.99;70.95
29569;BME280;16501;51.462;14.346;2023-05-23T02:27:55;99719.13;;;16.03;71.07
29569;BME280;16501;51.462;14.346;2023-05-23T02:30:21;99723.75;;;16.07;70.93
29569;BME280;16501;51.462;14.346;2023-05-23T02:32:46;99716.28;;;16.03;71.13
29569;BME280;16501;51.462;14.346;2023-05-23T02:35:12;99716.06;;;16.01;71.51
29569;BME280;16501;51.462;14.346;2023-05-23T02:37:37;99710.41;;;16.01;71.08
29569;BME280;16501;51.462;14.346;2023-05-23T02:40:03;99704.75;;;16.01;71.08
29569;BME280;16501;51.462;14.346;2023-05-23T02:42:31;99720.38;;;16.08;71.05
29569;BME280;16501;51.462;14.346;2023-05-23T02:44:56;99707.34;;;15.99;71.38
29569;BME280;16501;51.462;14.346;2023-05-23T02:47:22;99723.97;;;16.09;71.22
29569;BME280;16501;51.462;14.346;2023-05-23T02:49:47;99716.28;;;16.03;71.77
29569;BME280;16501;51.462;14.346;2023-05-23T02:52:12;99707.16;;;15.86;74.23
29569;BME280;16501;51.462;14.346;2023-05-23T02:54:38;99729.41;;;16.07;73.98
29569;BME280;16501;51.462;14.346;2023-05-23T02:57:03;99720.25;;;15.89;75.73
29569;BME280;16501;51.462;14.346;2023-05-23T02:59:29;99704.84;;;15.84;75.13
29569;BME280;16501;51.462;14.346;2023-05-23T03:01:54;99719.25;;;15.87;75.90
29569;BME280;16501;51.462;14.346;2023-05-23T03:04:20;99711.53;;;15.87;76.08
29569;BME280;16501;51.462;14.346;2023-05-23T03:06:45;99688.00;;;15.68;77.61
29569;BME280;16501;51.462;14.346;2023-05-23T03:09:11;99687.19;;;15.78;77.42
29569;BME280;16501;51.462;14.346;2023-05-23T03:11:36;99715.34;;;15.95;76.81
29569;BME280;16501;51.462;14.346;2023-05-23T03:14:02;99691.50;;;15.85;77.35
29569;BME280;16501;51.462;14.346;2023-05-23T03:16:27;99697.13;;;15.91;77.00
29569;BME280;16501;51.462;14.346;2023-05-23T03:18:52;99686.38;;;15.83;77.61
29569;BME280;16501;51.462;14.346;2023-05-23T03:21:18;99691.97;;;15.89;78.28
29569;BME280;16501;51.462;14.346;2023-05-23T03:23:43;99688.31;;;16.00;78.50
29569;BME280;16501;51.462;14.346;2023-05-23T03:26:08;99679.41;;;15.90;79.26
29569;BME280;16501;51.462;14.346;2023-05-23T03:28:33;99669.13;;;15.87;80.08
29569;BME280;16501;51.462;14.346;2023-05-23T03:30:59;99669.13;;;15.87;81.38
29569;BME280;16501;51.462;14.346;2023-05-23T03:33:24;99666.38;;;15.76;88.92
29569;BME280;16501;51.462;14.346;2023-05-23T03:35:49;99666.81;;;15.86;89.45
29569;BME280;16501;51.462;14.346;2023-05-23T03:38:15;99647.06;;;15.74;89.75
29569;BME280;16501;51.462;14.346;2023-05-23T03:40:40;99665.00;;;15.88;93.76
29569;BME280;16501;51.462;14.346;2023-05-23T03:43:06;99642.38;;;15.88;93.07
29569;BME280;16501;51.462;14.346;2023-05-23T03:45:32;99640.84;;;15.87;93.53
29569;BME280;16501;51.462;14.346;2023-05-23T03:47:58;99646.41;;;15.98;93.22
29569;BME280;16501;51.462;14.346;2023-05-23T03:50:23;99634.06;;;16.01;93.60
29569;BME280;16501;51.462;14.346;2023-05-23T03:52:49;99629.44;;;15.98;94.08
29569;BME280;16501;51.462;14.346;2023-05-23T03:55:14;99654.03;;;16.09;94.44
29569;BME280;16501;51.462;14.346;2023-05-23T03:57:40;99630.75;;;15.97;94.27
29569;BME280;16501;51.462;14.346;2023-05-23T04:00:05;99657.38;;;16.13;94.64
29569;BME280;16501;51.462;14.346;2023-05-23T04:02:36;99661.19;;;16.16;94.80
29569;BME280;16501;51.462;14.346;2023-05-23T04:05:03;99651.22;;;16.09;94.39
29569;BME280;16501;51.462;14.346;2023-05-23T04:07:31;99657.88;;;16.12;94.96
29569;BME280;16501;51.462;14.346;2023-05-23T04:09:58;99643.75;;;16.12;95.14
29569;BME280;16501;51.462;14.346;2023-05-23T04:12:24;99658.84;;;16.20;96.12
29569;BME280;16501;51.462;14.346;2023-05-23T04:14:49;99650.94;;;16.13;96.36
29569;BME280;16501;51.462;14.346;2023-05-23T04:17:14;99643.41;;;16.21;97.25
29569;BME280;16501;51.462;14.346;2023-05-23T04:19:40;99639.91;;;16.09;97.24
29569;BME280;16501;51.462;14.346;2023-05-23T04:22:05;99655.53;;;16.16;97.15
29569;BME280;16501;51.462;14.346;2023-05-23T04:24:30;99651.94;;;16.15;98.16
29569;BME280;16501;51.462;14.346;2023-05-23T04:26:55;99648.66;;;16.11;98.14
29569;BME280;16501;51.462;14.346;2023-05-23T04:29:21;99642.19;;;16.11;98.41
29569;BME280;16501;51.462;14.346;2023-05-23T04:31:49;99635.56;;;16.08;99.14
29569;BME280;16501;51.462;14.346;2023-05-23T04:34:14;99652.91;;;16.24;99.07
29569;BME280;16501;51.462;14.346;2023-05-23T04:36:41;99655.28;;;16.14;99.24
29569;BME280;16501;51.462;14.346;2023-05-23T04:39:08;99653.66;;;16.24;99.16
29569;BME280;16501;51.462;14.346;2023-05-23T04:41:34;99667.06;;;16.24;99.31
29569;BME280;16501;51.462;14.346;2023-05-23T04:44:00;99684.31;;;16.20;100.00
29569;BME280;16501;51.462;14.346;2023-05-23T04:46:25;99689.47;;;16.16;100.00
29569;BME280;16501;51.462;14.346;2023-05-23T04:48:51;99677.72;;;16.06;100.00
29569;BME280;16501;51.462;14.346;2023-05-23T04:51:17;99672.59;;;16.05;100.00
29569;BME280;16501;51.462;14.346;2023-05-23T04:53:42;99696.97;;;16.13;100.00
29569;BME280;16501;51.462;14.346;2023-05-23T04:56:08;99671.84;;;16.04;100.00
29569;BME280;16501;51.462;14.346;2023-05-23T04:58:33;99687.22;;;16.09;100.00
29569;BME280;16501;51.462;14.346;2023-05-23T05:00:59;99717.50;;;16.14;100.00
29569;BME280;16501;51.462;14.346;2023-05-23T05:03:24;99697.53;;;16.06;100.00
29569;BME280;16501;51.462;14.346;2023-05-23T05:05:50;99702.91;;;16.10;100.00
29569;BME280;16501;51.462;14.346;2023-05-23T05:08:15;99686.75;;;16.05;100.00
29569;BME280;16501;51.462;14.346;2023-05-23T05:10:43;99710.53;;;16.20;100.00
29569;BME280;16501;51.462;14.346;2023-05-23T05:13:09;99682.56;;;16.11;100.00
29569;BME280;16501;51.462;14.346;2023-05-23T05:15:34;99692.63;;;16.07;100.00
29569;BME280;16501;51.462;14.346;2023-05-23T05:18:00;99705.44;;;16.13;100.00
29569;BME280;16501;51.462;14.346;2023-05-23T05:20:25;99703.66;;;16.10;100.00
29569;BME280;16501;51.462;14.346;2023-05-23T05:22:57;99721.78;;;16.26;100.00
29569;BME280;16501;51.462;14.346;2023-05-23T05:25:22;99714.41;;;16.17;100.00
29569;BME280;16501;51.462;14.346;2023-05-23T05:27:48;99710.34;;;16.13;100.00
29569;BME280;16501;51.462;14.346;2023-05-23T05:30:13;99706.69;;;16.18;100.00
29569;BME280;16501;51.462;14.346;2023-05-23T05:32:38;99736.66;;;16.32;100.00
29569;BME280;16501;51.462;14.346;2023-05-23T05:35:04;99717.38;;;16.31;100.00
29569;BME280;16501;51.462;14.346;2023-05-23T05:37:31;99705.06;;;16.28;100.00
29569;BME280;16501;51.462;14.346;2023-05-23T05:39:57;99723.22;;;16.38;100.00
29569;BME280;16501;51.462;14.346;2023-05-23T05:42:23;99729.03;;;16.52;100.00
29569;BME280;16501;51.462;14.346;2023-05-23T05:44:49;99709.59;;;16.43;100.00
29569;BME280;16501;51.462;14.346;2023-05-23T05:47:15;99719.44;;;16.61;100.00
29569;BME280;16501;51.462;14.346;2023-05-23T05:49:40;99705.81;;;16.59;100.00
29569;BME280;16501;51.462;14.346;2023-05-23T05:52:06;99711.91;;;16.69;100.00
29569;BME280;16501;51.462;14.346;2023-05-23T05:54:31;99718.50;;;16.77;100.00
29569;BME280;16501;51.462;14.346;2023-05-23T05:56:57;99710.75;;;16.83;100.00
29569;BME280;16501;51.462;14.346;2023-05-23T05:59:22;99713.53;;;16.89;100.00
29569;BME280;16501;51.462;14.346;2023-05-23T06:01:47;99703.25;;;16.86;100.00
29569;BME280;16501;51.462;14.346;2023-05-23T06:04:15;99707.88;;;16.89;100.00
29569;BME280;16501;51.462;14.346;2023-05-23T06:06:40;99683.31;;;16.72;100.00
29569;BME280;16501;51.462;14.346;2023-05-23T06:09:05;99704.81;;;16.87;100.00
29569;BME280;16501;51.462;14.346;2023-05-23T06:11:31;99703.81;;;16.84;100.00
29569;BME280;16501;51.462;14.346;2023-05-23T06:13:56;99689.22;;;16.74;100.00
29569;BME280;16501;51.462;14.346;2023-05-23T06:16:21;99700.31;;;16.72;100.00
29569;BME280;16501;51.462;14.346;2023-05-23T06:18:46;99692.63;;;16.67;100.00
29569;BME280;16501;51.462;14.346;2023-05-23T06:21:12;99703.44;;;16.69;100.00
29569;BME280;16501;51.462;14.346;2023-05-23T06:23:37;99696.09;;;16.54;100.00
29569;BME280;16501;51.462;14.346;2023-05-23T06:26:03;99708.06;;;16.66;100.00
29569;BME280;16501;51.462;14.346;2023-05-23T06:28:32;99707.59;;;16.62;100.00
29569;BME280;16501;51.462;14.346;2023-05-23T06:30:57;99704.72;;;16.68;100.00
29569;BME280;16501;51.462;14.346;2023-05-23T06:33:22;99699.50;;;16.72;100.00
29569;BME280;16501;51.462;14.346;2023-05-23T06:35:53;99714.59;;;16.86;100.00
29569;BME280;16501;51.462;14.346;2023-05-23T06:38:18;99697.59;;;16.86;100.00
29569;BME280;16501;51.462;14.346;2023-05-23T06:40:43;99723.34;;;17.12;100.00
29569;BME280;16501;51.462;14.346;2023-05-23T06:43:09;99706.09;;;17.10;100.00
29569;BME280;16501;51.462;14.346;2023-05-23T06:45:34;99720.13;;;17.22;100.00
29569;BME280;16501;51.462;14.346;2023-05-23T06:48:00;99707.09;;;17.13;100.00
29569;BME280;16501;51.462;14.346;2023-05-23T06:50:25;99684.97;;;17.11;100.00
29569;BME280;16501;51.462;14.346;2023-05-23T06:52:50;99722.69;;;17.44;100.00
29569;BME280;16501;51.462;14.346;2023-05-23T06:55:16;99705.00;;;17.38;100.00
29569;BME280;16501;51.462;14.346;2023-05-23T06:57:43;99715.81;;;17.59;100.00
29569;BME280;16501;51.462;14.346;2023-05-23T07:00:09;99706.94;;;17.49;100.00
29569;BME280;16501;51.462;14.346;2023-05-23T07:02:35;99714.50;;;17.60;100.00
29569;BME280;16501;51.462;14.346;2023-05-23T07:05:00;99697.72;;;17.43;100.00
29569;BME280;16501;51.462;14.346;2023-05-23T07:07:26;99717.88;;;17.58;100.00
29569;BME280;16501;51.462;14.346;2023-05-23T07:09:51;99706.00;;;17.41;100.00
29569;BME280;16501;51.462;14.346;2023-05-23T07:12:16;99693.13;;;17.40;100.00
29569;BME280;16501;51.462;14.346;2023-05-23T07:14:41;99707.91;;;17.51;100.00
29569;BME280;16501;51.462;14.346;2023-05-23T07:17:07;99706.41;;;17.50;100.00
29569;BME280;16501;51.462;14.346;2023-05-23T07:19:32;99725.84;;;17.60;100.00
29569;BME280;16501;51.462;14.346;2023-05-23T07:21:57;99721.16;;;17.62;100.00
29569;BME280;16501;51.462;14.346;2023-05-23T07:24:22;99717.75;;;17.69;98.99
29569;BME280;16501;51.462;14.346;2023-05-23T07:26:48;99720.72;;;17.77;98.06
29569;BME280;16501;51.462;14.346;2023-05-23T07:29:13;99722.94;;;17.84;98.70
29569;BME280;16501;51.462;14.346;2023-05-23T07:31:38;99718.81;;;17.85;98.02
29569;BME280;16501;51.462;14.346;2023-05-23T07:34:04;99724.41;;;17.91;97.28
29569;BME280;16501;51.462;14.346;2023-05-23T07:36:29;99721.59;;;17.91;97.35
29569;BME280;16501;51.462;14.346;2023-05-23T07:38:58;99712.97;;;18.16;96.72
29569;BME280;16501;51.462;14.346;2023-05-23T07:41:23;99698.66;;;18.08;94.38
29569;BME280;16501;51.462;14.346;2023-05-23T07:43:48;99706.56;;;18.28;94.88
29569;BME280;16501;51.462;14.346;2023-05-23T07:46:13;99703.91;;;18.50;93.33
29569;BME280;16501;51.462;14.346;2023-05-23T07:48:39;99726.78;;;18.84;88.92
29569;BME280;16501;51.462;14.346;2023-05-23T07:51:04;99708.72;;;18.68;86.73
29569;BME280;16501;51.462;14.346;2023-05-23T07:53:30;99723.28;;;18.78;84.82
29569;BME280;16501;51.462;14.346;2023-05-23T07:55:55;99722.38;;;18.70;86.00
29569;BME280;16501;51.462;14.346;2023-05-23T07:58:20;99726.47;;;18.88;86.62
29569;BME280;16501;51.462;14.346;2023-05-23T08:00:47;99711.75;;;19.02;86.88
29569;BME280;16501;51.462;14.346;2023-05-23T08:03:13;99714.25;;;19.33;86.25
29569;BME280;16501;51.462;14.346;2023-05-23T08:05:38;99723.56;;;19.33;85.65
29569;BME280;16501;51.462;14.346;2023-05-23T08:08:03;99698.31;;;19.30;84.86
29569;BME280;16501;51.462;14.346;2023-05-23T08:10:28;99712.47;;;19.43;84.49
29569;BME280;16501;51.462;14.346;2023-05-23T08:12:54;99733.56;;;19.61;83.39
29569;BME280;16501;51.462;14.346;2023-05-23T08:15:19;99722.69;;;19.73;81.54
29569;BME280;16501;51.462;14.346;2023-05-23T08:17:47;99714.44;;;19.62;80.94
29569;BME280;16501;51.462;14.346;2023-05-23T08:20:12;99732.09;;;19.94;81.96
29569;BME280;16501;51.462;14.346;2023-05-23T08:22:38;99749.88;;;20.08;76.37
29569;BME280;16501;51.462;14.346;2023-05-23T08:25:04;99740.19;;;20.25;76.51
29569;BME280;16501;51.462;14.346;2023-05-23T08:27:29;99725.34;;;20.40;76.32
29569;BME280;16501;51.462;14.346;2023-05-23T08:29:55;99751.03;;;20.68;71.85
29569;BME280;16501;51.462;14.346;2023-05-23T08:32:20;99743.72;;;20.60;69.13
29569;BME280;16501;51.462;14.346;2023-05-23T08:34:45;99737.44;;;20.75;68.30
29569;BME280;16501;51.462;14.346;2023-05-23T08:37:10;99751.09;;;20.97;68.30
29569;BME280;16501;51.462;14.346;2023-05-23T08:39:36;99745.03;;;21.01;68.94
29569;BME280;16501;51.462;14.346;2023-05-23T08:42:01;99749.69;;;20.90;64.85
29569;BME280;16501;51.462;14.346;2023-05-23T08:44:26;99742.22;;;20.80;66.80
29569;BME280;16501;51.462;14.346;2023-05-23T08:46:52;99757.03;;;20.78;68.60
29569;BME280;16501;51.462;14.346;2023-05-23T08:49:17;99743.72;;;20.60;68.07
29569;BME280;16501;51.462;14.346;2023-05-23T08:51:44;99756.88;;;20.63;69.00
29569;BME280;16501;51.462;14.346;2023-05-23T08:54:10;99744.91;;;20.43;65.32
29569;BME280;16501;51.462;14.346;2023-05-23T08:56:39;99758.28;;;20.69;65.48
29569;BME280;16501;51.462;14.346;2023-05-23T08:59:06;99743.06;;;20.67;62.03
29569;BME280;16501;51.462;14.346;2023-05-23T09:01:47;99755.88;;;21.02;61.21
29569;BME280;16501;51.462;14.346;2023-05-23T09:04:12;99732.19;;;20.86;59.72
29569;BME280;16501;51.462;14.346;2023-05-23T09:06:37;99734.78;;;21.05;59.82
29569;BME280;16501;51.462;14.346;2023-05-23T09:09:03;99750.72;;;21.29;58.77
29569;BME280;16501;51.462;14.346;2023-05-23T09:11:28;99759.63;;;21.55;58.10
29569;BME280;16501;51.462;14.346;2023-05-23T09:13:54;99756.81;;;21.62;57.20
29569;BME280;16501;51.462;14.346;2023-05-23T09:16:20;99744.09;;;21.63;58.99
29569;BME280;16501;51.462;14.346;2023-05-23T09:18:45;99757.59;;;21.71;56.52
29569;BME280;16501;51.462;14.346;2023-05-23T09:21:12;99745.09;;;21.45;56.02
29569;BME280;16501;51.462;14.346;2023-05-23T09:23:39;99757.06;;;21.72;55.00
29569;BME280;16501;51.462;14.346;2023-05-23T09:26:08;99757.94;;;22.11;57.18
29569;BME280;16501;51.462;14.346;2023-05-23T09:28:35;99761.25;;;22.38;56.42
29569;BME280;16501;51.462;14.346;2023-05-23T09:31:04;99756.09;;;22.29;54.17
29569;BME280;16501;51.462;14.346;2023-05-23T09:33:42;99748.03;;;22.12;55.49
29569;BME280;16501;51.462;14.346;2023-05-23T09:36:08;99758.97;;;22.45;53.99
29569;BME280;16501;51.462;14.346;2023-05-23T09:38:37;99754.41;;;22.49;53.24
29569;BME280;16501;51.462;14.346;2023-05-23T09:41:03;99745.09;;;22.64;52.71
29569;BME280;16501;51.462;14.346;2023-05-23T09:43:29;99725.66;;;22.55;51.28
29569;BME280;16501;51.462;14.346;2023-05-23T09:45:54;99742.78;;;22.55;51.43
29569;BME280;16501;51.462;14.346;2023-05-23T09:48:28;99767.00;;;22.62;50.72
29569;BME280;16501;51.462;14.346;2023-05-23T09:50:55;99756.31;;;22.31;52.29
29569;BME280;16501;51.462;14.346;2023-05-23T09:53:20;99751.66;;;22.05;51.54
29569;BME280;16501;51.462;14.346;2023-05-23T09:55:49;99729.50;;;21.82;50.26
29569;BME280;16501;51.462;14.346;2023-05-23T09:58:18;99770.84;;;22.04;51.36
29569;BME280;16501;51.462;14.346;2023-05-23T10:00:45;99753.34;;;22.00;51.61
29569;BME280;16501;51.462;14.346;2023-05-23T10:03:11;99766.53;;;22.27;52.81
29569;BME280;16501;51.462;14.346;2023-05-23T10:05:44;99763.88;;;22.21;50.75
29569;BME280;16501;51.462;14.346;2023-05-23T10:08:26;99778.09;;;22.06;50.28
29569;BME280;16501;51.462;14.346;2023-05-23T10:13:26;99766.75;;;22.29;50.14
29569;BME280;16501;51.462;14.346;2023-05-23T10:15:58;99755.34;;;22.29;50.63
29569;BME280;16501;51.462;14.346;2023-05-23T10:18:28;99775.75;;;22.56;50.69
29569;BME280;16501;51.462;14.346;2023-05-23T10:20:56;99762.78;;;22.39;50.39
29569;BME280;16501;51.462;14.346;2023-05-23T10:23:25;99755.38;;;22.36;51.85
29569;BME280;16501;51.462;14.346;2023-05-23T10:25:51;99759.66;;;22.22;49.63
29569;BME280;16501;51.462;14.346;2023-05-23T10:28:16;99763.94;;;22.67;48.66
29569;BME280;16501;51.462;14.346;2023-05-23T10:30:42;99740.91;;;22.81;49.11
29569;BME280;16501;51.462;14.346;2023-05-23T10:33:08;99774.06;;;22.99;48.20
29569;BME280;16501;51.462;14.346;2023-05-23T10:36:42;99772.31;;;23.04;49.77
29569;BME280;16501;51.462;14.346;2023-05-23T10:38:45;99743.00;;;22.80;48.54
29569;BME280;16501;51.462;14.346;2023-05-23T10:41:30;99758.81;;;22.73;49.16
29569;BME280;16501;51.462;14.346;2023-05-23T10:44:30;99767.00;;;22.62;49.39
29569;BME280;16501;51.462;14.346;2023-05-23T10:46:57;99781.88;;;22.68;49.32
29569;BME280;16501;51.462;14.346;2023-05-23T10:49:45;99781.28;;;22.77;49.76
29569;BME280;16501;51.462;14.346;2023-05-23T10:52:15;99767.19;;;22.64;50.47
29569;BME280;16501;51.462;14.346;2023-05-23T10:54:43;99755.56;;;22.54;49.87
29569;BME280;16501;51.462;14.346;2023-05-23T10:57:09;99762.03;;;22.62;51.36
29569;BME280;16501;51.462;14.346;2023-05-23T10:59:36;99758.44;;;22.54;51.51
29569;BME280;16501;51.462;14.346;2023-05-23T11:02:02;99767.19;;;22.94;50.74
29569;BME280;16501;51.462;14.346;2023-05-23T11:04:31;99750.78;;;22.95;51.22
29569;BME280;16501;51.462;14.346;2023-05-23T11:06:57;99763.75;;;23.04;50.38
29569;BME280;16501;51.462;14.346;2023-05-23T11:09:22;99762.97;;;23.03;52.58
29569;BME280;16501;51.462;14.346;2023-05-23T11:12:05;99769.50;;;23.11;48.77
29569;BME280;16501;51.462;14.346;2023-05-23T11:17:02;99766.78;;;22.67;50.45
29569;BME280;16501;51.462;14.346;2023-05-23T11:19:54;99777.84;;;22.48;50.25
29569;BME280;16501;51.462;14.346;2023-05-23T11:22:21;99777.84;;;22.48;51.34
29569;BME280;16501;51.462;14.346;2023-05-23T11:24:51;99755.75;;;22.33;52.93
29569;BME280;16501;51.462;14.346;2023-05-23T11:27:25;99785.38;;;22.22;52.65
29569;BME280;16501;51.462;14.346;2023-05-23T11:30:08;99791.56;;;21.97;53.60
29569;BME280;16501;51.462;14.346;2023-05-23T11:32:34;99780.88;;;21.90;55.26
29569;BME280;16501;51.462;14.346;2023-05-23T11:35:02;99773.59;;;21.74;59.37
29569;BME280;16501;51.462;14.346;2023-05-23T11:37:29;99774.94;;;21.73;61.68
29569;BME280;16501;51.462;14.346;2023-05-23T11:39:55;99777.16;;;21.66;62.95
29569;BME280;16501;51.462;14.346;2023-05-23T11:42:21;99793.94;;;21.70;63.94
29569;BME280;16501;51.462;14.346;2023-05-23T11:44:50;99793.22;;;21.77;64.16
29569;BME280;16501;51.462;14.346;2023-05-23T11:47:16;99785.34;;;21.62;65.42
29569;BME280;16501;51.462;14.346;2023-05-23T11:49:43;99802.56;;;21.49;73.54
29569;BME280;16501;51.462;14.346;2023-05-23T11:52:08;99793.47;;;21.01;79.56
29569;BME280;16501;51.462;14.346;2023-05-23T11:54:34;99808.91;;;20.84;82.14
29569;BME280;16501;51.462;14.346;2023-05-23T11:57:00;99817.00;;;20.94;86.25
29569;BME280;16501;51.462;14.346;2023-05-23T11:59:26;99791.75;;;20.77;87.13
29569;BME280;16501;51.462;14.346;2023-05-23T12:01:52;99786.25;;;20.58;88.61
29569;BME280;16501;51.462;14.346;2023-05-23T12:04:18;99808.09;;;20.76;87.93
29569;BME280;16501;51.462;14.346;2023-05-23T12:06:50;99797.88;;;20.81;88.62
29569;BME280;16501;51.462;14.346;2023-05-23T12:09:15;99810.81;;;20.82;86.83
29569;BME280;16501;51.462;14.346;2023-05-23T12:11:42;99822.50;;;20.57;84.26
29569;BME280;16501;51.462;14.346;2023-05-23T12:14:08;99797.06;;;20.38;85.23
29569;BME280;16501;51.462;14.346;2023-05-23T12:16:37;99807.06;;;20.52;82.92
29569;BME280;16501;51.462;14.346;2023-05-23T12:19:03;99810.94;;;20.76;81.01
29569;BME280;16501;51.462;14.346;2023-05-23T12:21:42;99802.84;;;20.88;78.90
29569;BME280;16501;51.462;14.346;2023-05-23T12:24:13;99806.91;;;20.93;76.44
29569;BME280;16501;51.462;14.346;2023-05-23T12:26:51;99787.47;;;21.12;74.66
29569;BME280;16501;51.462;14.346;2023-05-23T12:29:18;99815.63;;;21.16;72.91
29569;BME280;16501;51.462;14.346;2023-05-23T12:31:47;99781.75;;;20.83;70.22
29569;BME280;16501;51.462;14.346;2023-05-23T12:34:12;99806.81;;;21.06;71.99
29569;BME280;16501;51.462;14.346;2023-05-23T12:36:37;99809.13;;;21.07;71.43
29569;BME280;16501;51.462;14.346;2023-05-23T12:39:04;99820.69;;;21.31;70.70
29569;BME280;16501;51.462;14.346;2023-05-23T12:41:31;99797.88;;;21.31;69.49
29569;BME280;16501;51.462;14.346;2023-05-23T12:43:56;99790.22;;;21.25;69.23
29569;BME280;16501;51.462;14.346;2023-05-23T12:46:25;99815.34;;;21.56;69.59
29569;BME280;16501;51.462;14.346;2023-05-23T12:48:51;99800.50;;;21.50;65.20
29569;BME280;16501;51.462;14.346;2023-05-23T12:51:17;99805.91;;;21.69;68.12
29569;BME280;16501;51.462;14.346;2023-05-23T12:53:42;99814.41;;;21.61;66.88
29569;BME280;16501;51.462;14.346;2023-05-23T12:56:07;99791.44;;;21.38;66.51